sensor_id;sensor_type;location;lat;lon;timestamp;P1;durP1;ratioP1;P2;durP2;ratioP2
29774;SDS011;16676;51.202;6.774;2023-08-12T00:04:08;8.77;;;5.35;;
29774;SDS011;16676;51.202;6.774;2023-08-12T00:08:14;9.30;;;4.82;;
29774;SDS011;16676;51.202;6.774;2023-08-12T00:12:16;9.20;;;4.72;;
29774;SDS011;16676;51.202;6.774;2023-08-12T00:16:18;7.60;;;4.50;;
29774;SDS011;16676;51.202;6.774;2023-08-12T00:20:22;10.07;;;5.90;;
29774;SDS011;16676;51.202;6.774;2023-08-12T00:24:24;9.15;;;5.15;;
29774;SDS011;16676;51.202;6.774;2023-08-12T00:28:26;12.40;;;7.82;;
29774;SDS011;16676;51.202;6.774;2023-08-12T00:32:28;15.60;;;9.77;;
29774;SDS011;16676;51.202;6.774;2023-08-12T00:36:31;18.02;;;12.25;;
29774;SDS011;16676;51.202;6.774;2023-08-12T00:40:34;20.08;;;12.80;;
29774;SDS011;16676;51.202;6.774;2023-08-12T00:44:36;18.20;;;13.00;;
29774;SDS011;16676;51.202;6.774;2023-08-12T00:48:38;19.08;;;13.23;;
29774;SDS011;16676;51.202;6.774;2023-08-12T00:52:41;19.75;;;13.18;;
29774;SDS011;16676;51.202;6.774;2023-08-12T00:56:43;14.23;;;10.95;;
29774;SDS011;16676;51.202;6.774;2023-08-12T01:00:46;17.83;;;11.25;;
29774;SDS011;16676;51.202;6.774;2023-08-12T01:04:48;18.05;;;11.27;;
29774;SDS011;16676;51.202;6.774;2023-08-12T01:08:52;14.25;;;10.10;;
29774;SDS011;16676;51.202;6.774;2023-08-12T01:12:55;15.38;;;10.18;;
29774;SDS011;16676;51.202;6.774;2023-08-12T01:17:05;17.23;;;10.00;;
29774;SDS011;16676;51.202;6.774;2023-08-12T01:21:10;13.70;;;8.98;;
29774;SDS011;16676;51.202;6.774;2023-08-12T01:25:18;15.95;;;9.20;;
29774;SDS011;16676;51.202;6.774;2023-08-12T01:29:20;14.48;;;9.60;;
29774;SDS011;16676;51.202;6.774;2023-08-12T01:33:24;12.88;;;8.32;;
29774;SDS011;16676;51.202;6.774;2023-08-12T01:37:30;15.73;;;9.30;;
29774;SDS011;16676;51.202;6.774;2023-08-12T01:41:34;13.85;;;8.98;;
29774;SDS011;16676;51.202;6.774;2023-08-12T01:45:37;12.93;;;8.98;;
29774;SDS011;16676;51.202;6.774;2023-08-12T01:49:39;15.65;;;10.43;;
29774;SDS011;16676;51.202;6.774;2023-08-12T01:53:41;14.38;;;8.93;;
29774;SDS011;16676;51.202;6.774;2023-08-12T01:57:44;12.85;;;7.53;;
29774;SDS011;16676;51.202;6.774;2023-08-12T02:01:46;10.90;;;7.22;;
29774;SDS011;16676;51.202;6.774;2023-08-12T02:05:48;9.00;;;5.95;;
29774;SDS011;16676;51.202;6.774;2023-08-12T02:09:50;14.00;;;7.28;;
29774;SDS011;16676;51.202;6.774;2023-08-12T02:13:53;10.43;;;7.05;;
29774;SDS011;16676;51.202;6.774;2023-08-12T02:17:55;10.25;;;6.43;;
29774;SDS011;16676;51.202;6.774;2023-08-12T02:21:59;12.00;;;6.50;;
29774;SDS011;16676;51.202;6.774;2023-08-12T02:26:01;11.30;;;6.13;;
29774;SDS011;16676;51.202;6.774;2023-08-12T02:30:06;11.52;;;5.22;;
29774;SDS011;16676;51.202;6.774;2023-08-12T02:34:09;8.70;;;5.90;;
29774;SDS011;16676;51.202;6.774;2023-08-12T02:38:11;9.43;;;6.40;;
29774;SDS011;16676;51.202;6.774;2023-08-12T02:42:13;9.52;;;6.75;;
29774;SDS011;16676;51.202;6.774;2023-08-12T02:46:16;10.73;;;6.43;;
29774;SDS011;16676;51.202;6.774;2023-08-12T02:50:18;10.25;;;6.40;;
29774;SDS011;16676;51.202;6.774;2023-08-12T02:54:20;11.02;;;6.07;;
29774;SDS011;16676;51.202;6.774;2023-08-12T02:58:22;12.57;;;7.88;;
29774;SDS011;16676;51.202;6.774;2023-08-12T03:02:26;11.05;;;7.00;;
29774;SDS011;16676;51.202;6.774;2023-08-12T03:06:27;14.32;;;7.80;;
29774;SDS011;16676;51.202;6.774;2023-08-12T03:10:30;10.77;;;6.78;;
29774;SDS011;16676;51.202;6.774;2023-08-12T03:14:32;17.75;;;9.50;;
29774;SDS011;16676;51.202;6.774;2023-08-12T03:18:35;17.65;;;10.00;;
29774;SDS011;16676;51.202;6.774;2023-08-12T03:22:37;16.92;;;9.98;;
29774;SDS011;16676;51.202;6.774;2023-08-12T03:26:39;15.70;;;9.63;;
29774;SDS011;16676;51.202;6.774;2023-08-12T03:30:41;15.80;;;9.50;;
29774;SDS011;16676;51.202;6.774;2023-08-12T03:34:44;19.25;;;11.43;;
29774;SDS011;16676;51.202;6.774;2023-08-12T03:38:46;12.65;;;9.35;;
29774;SDS011;16676;51.202;6.774;2023-08-12T03:42:48;17.50;;;11.68;;
29774;SDS011;16676;51.202;6.774;2023-08-12T03:46:50;16.45;;;11.25;;
29774;SDS011;16676;51.202;6.774;2023-08-12T03:50:53;13.48;;;9.30;;
29774;SDS011;16676;51.202;6.774;2023-08-12T03:54:55;15.55;;;9.75;;
29774;SDS011;16676;51.202;6.774;2023-08-12T03:58:57;15.93;;;9.35;;
29774;SDS011;16676;51.202;6.774;2023-08-12T04:02:59;11.73;;;8.75;;
29774;SDS011;16676;51.202;6.774;2023-08-12T04:07:02;18.13;;;9.75;;
29774;SDS011;16676;51.202;6.774;2023-08-12T04:11:04;12.95;;;9.25;;
29774;SDS011;16676;51.202;6.774;2023-08-12T04:15:07;14.85;;;10.32;;
29774;SDS011;16676;51.202;6.774;2023-08-12T04:19:09;15.02;;;11.32;;
29774;SDS011;16676;51.202;6.774;2023-08-12T04:23:13;15.27;;;11.25;;
29774;SDS011;16676;51.202;6.774;2023-08-12T04:27:15;17.90;;;11.45;;
29774;SDS011;16676;51.202;6.774;2023-08-12T04:31:17;19.13;;;12.63;;
29774;SDS011;16676;51.202;6.774;2023-08-12T04:35:19;15.90;;;11.52;;
29774;SDS011;16676;51.202;6.774;2023-08-12T04:39:22;18.10;;;12.48;;
29774;SDS011;16676;51.202;6.774;2023-08-12T04:43:25;16.48;;;10.98;;
29774;SDS011;16676;51.202;6.774;2023-08-12T04:47:27;19.55;;;11.57;;
29774;SDS011;16676;51.202;6.774;2023-08-12T04:51:29;17.52;;;11.00;;
29774;SDS011;16676;51.202;6.774;2023-08-12T04:55:32;19.92;;;12.35;;
29774;SDS011;16676;51.202;6.774;2023-08-12T04:59:35;16.75;;;10.73;;
29774;SDS011;16676;51.202;6.774;2023-08-12T05:03:37;19.45;;;10.18;;
29774;SDS011;16676;51.202;6.774;2023-08-12T05:07:39;19.60;;;10.85;;
29774;SDS011;16676;51.202;6.774;2023-08-12T05:11:42;17.33;;;10.18;;
29774;SDS011;16676;51.202;6.774;2023-08-12T05:15:45;13.98;;;9.10;;
29774;SDS011;16676;51.202;6.774;2023-08-12T05:19:48;13.20;;;8.23;;
29774;SDS011;16676;51.202;6.774;2023-08-12T05:23:50;15.57;;;8.73;;
29774;SDS011;16676;51.202;6.774;2023-08-12T05:27:53;16.63;;;9.00;;
29774;SDS011;16676;51.202;6.774;2023-08-12T05:31:55;13.85;;;8.30;;
29774;SDS011;16676;51.202;6.774;2023-08-12T05:35:57;12.40;;;7.95;;
29774;SDS011;16676;51.202;6.774;2023-08-12T05:39:59;10.32;;;6.82;;
29774;SDS011;16676;51.202;6.774;2023-08-12T05:44:02;9.82;;;6.30;;
29774;SDS011;16676;51.202;6.774;2023-08-12T05:48:05;10.50;;;5.45;;
29774;SDS011;16676;51.202;6.774;2023-08-12T05:52:07;10.20;;;5.38;;
29774;SDS011;16676;51.202;6.774;2023-08-12T05:56:09;9.63;;;5.55;;
29774;SDS011;16676;51.202;6.774;2023-08-12T06:00:13;9.95;;;5.20;;
29774;SDS011;16676;51.202;6.774;2023-08-12T06:04:15;8.82;;;4.80;;
29774;SDS011;16676;51.202;6.774;2023-08-12T06:08:17;11.57;;;5.32;;
29774;SDS011;16676;51.202;6.774;2023-08-12T06:12:19;6.10;;;3.58;;
29774;SDS011;16676;51.202;6.774;2023-08-12T06:16:22;11.73;;;4.95;;
29774;SDS011;16676;51.202;6.774;2023-08-12T06:20:24;7.82;;;4.68;;
29774;SDS011;16676;51.202;6.774;2023-08-12T06:24:26;9.52;;;4.00;;
29774;SDS011;16676;51.202;6.774;2023-08-12T06:28:28;7.47;;;4.40;;
29774;SDS011;16676;51.202;6.774;2023-08-12T06:32:33;6.70;;;4.25;;
29774;SDS011;16676;51.202;6.774;2023-08-12T06:36:35;8.45;;;4.80;;
29774;SDS011;16676;51.202;6.774;2023-08-12T06:40:37;6.40;;;3.85;;
29774;SDS011;16676;51.202;6.774;2023-08-12T06:44:39;8.38;;;5.38;;
29774;SDS011;16676;51.202;6.774;2023-08-12T06:48:42;6.07;;;4.53;;
29774;SDS011;16676;51.202;6.774;2023-08-12T06:52:44;6.82;;;4.68;;
29774;SDS011;16676;51.202;6.774;2023-08-12T06:56:46;8.75;;;4.68;;
29774;SDS011;16676;51.202;6.774;2023-08-12T07:00:48;7.03;;;5.32;;
29774;SDS011;16676;51.202;6.774;2023-08-12T07:04:52;5.90;;;4.18;;
29774;SDS011;16676;51.202;6.774;2023-08-12T07:08:54;5.88;;;4.30;;
29774;SDS011;16676;51.202;6.774;2023-08-12T07:12:56;6.85;;;3.92;;
29774;SDS011;16676;51.202;6.774;2023-08-12T07:16:58;7.07;;;4.40;;
29774;SDS011;16676;51.202;6.774;2023-08-12T07:21:01;6.88;;;4.10;;
29774;SDS011;16676;51.202;6.774;2023-08-12T07:25:03;8.20;;;4.45;;
29774;SDS011;16676;51.202;6.774;2023-08-12T07:29:06;8.75;;;4.82;;
29774;SDS011;16676;51.202;6.774;2023-08-12T07:33:08;7.10;;;4.45;;
29774;SDS011;16676;51.202;6.774;2023-08-12T07:37:11;7.45;;;4.20;;
29774;SDS011;16676;51.202;6.774;2023-08-12T07:41:13;7.82;;;4.70;;
29774;SDS011;16676;51.202;6.774;2023-08-12T07:45:15;5.60;;;3.58;;
29774;SDS011;16676;51.202;6.774;2023-08-12T07:49:17;7.63;;;4.05;;
29774;SDS011;16676;51.202;6.774;2023-08-12T07:53:20;6.80;;;4.30;;
29774;SDS011;16676;51.202;6.774;2023-08-12T07:57:22;8.15;;;4.55;;
29774;SDS011;16676;51.202;6.774;2023-08-12T08:01:24;5.80;;;3.58;;
29774;SDS011;16676;51.202;6.774;2023-08-12T08:05:26;7.88;;;4.40;;
29774;SDS011;16676;51.202;6.774;2023-08-12T08:09:29;9.27;;;4.55;;
29774;SDS011;16676;51.202;6.774;2023-08-12T08:13:31;5.35;;;3.50;;
29774;SDS011;16676;51.202;6.774;2023-08-12T08:17:33;9.95;;;3.80;;
29774;SDS011;16676;51.202;6.774;2023-08-12T08:21:35;8.60;;;3.72;;
29774;SDS011;16676;51.202;6.774;2023-08-12T08:25:38;5.22;;;2.85;;
29774;SDS011;16676;51.202;6.774;2023-08-12T08:29:40;5.70;;;3.33;;
29774;SDS011;16676;51.202;6.774;2023-08-12T08:33:42;3.70;;;2.40;;
29774;SDS011;16676;51.202;6.774;2023-08-12T08:37:44;6.38;;;2.80;;
29774;SDS011;16676;51.202;6.774;2023-08-12T08:41:48;5.63;;;2.60;;
29774;SDS011;16676;51.202;6.774;2023-08-12T08:45:50;6.43;;;3.08;;
29774;SDS011;16676;51.202;6.774;2023-08-12T08:49:54;5.22;;;2.60;;
29774;SDS011;16676;51.202;6.774;2023-08-12T08:53:57;5.63;;;2.88;;
29774;SDS011;16676;51.202;6.774;2023-08-12T08:58:01;5.53;;;3.10;;
29774;SDS011;16676;51.202;6.774;2023-08-12T09:02:04;7.97;;;2.33;;
29774;SDS011;16676;51.202;6.774;2023-08-12T09:06:09;4.88;;;2.53;;
29774;SDS011;16676;51.202;6.774;2023-08-12T09:10:12;7.38;;;2.85;;
29774;SDS011;16676;51.202;6.774;2023-08-12T09:14:15;5.35;;;2.70;;
29774;SDS011;16676;51.202;6.774;2023-08-12T09:18:18;6.30;;;2.58;;
29774;SDS011;16676;51.202;6.774;2023-08-12T09:22:24;6.03;;;2.97;;
29774;SDS011;16676;51.202;6.774;2023-08-12T09:26:26;5.18;;;2.35;;
29774;SDS011;16676;51.202;6.774;2023-08-12T09:30:31;3.97;;;2.40;;
29774;SDS011;16676;51.202;6.774;2023-08-12T09:34:33;3.10;;;2.00;;
29774;SDS011;16676;51.202;6.774;2023-08-12T09:38:36;3.28;;;1.75;;
29774;SDS011;16676;51.202;6.774;2023-08-12T09:42:43;5.03;;;1.70;;
29774;SDS011;16676;51.202;6.774;2023-08-12T09:46:47;2.53;;;1.70;;
29774;SDS011;16676;51.202;6.774;2023-08-12T09:50:49;3.20;;;1.73;;
29774;SDS011;16676;51.202;6.774;2023-08-12T09:54:51;1.95;;;1.50;;
29774;SDS011;16676;51.202;6.774;2023-08-12T09:58:56;2.05;;;1.30;;
29774;SDS011;16676;51.202;6.774;2023-08-12T10:03:00;2.33;;;1.23;;
29774;SDS011;16676;51.202;6.774;2023-08-12T10:07:03;2.58;;;1.15;;
29774;SDS011;16676;51.202;6.774;2023-08-12T10:11:06;1.85;;;1.20;;
29774;SDS011;16676;51.202;6.774;2023-08-12T10:15:09;2.10;;;1.38;;
29774;SDS011;16676;51.202;6.774;2023-08-12T10:19:13;3.25;;;1.00;;
29774;SDS011;16676;51.202;6.774;2023-08-12T10:23:17;2.17;;;1.08;;
29774;SDS011;16676;51.202;6.774;2023-08-12T10:27:19;2.05;;;1.08;;
29774;SDS011;16676;51.202;6.774;2023-08-12T10:31:22;2.53;;;0.93;;
29774;SDS011;16676;51.202;6.774;2023-08-12T10:35:25;1.48;;;0.93;;
29774;SDS011;16676;51.202;6.774;2023-08-12T10:39:45;1.58;;;0.80;;
29774;SDS011;16676;51.202;6.774;2023-08-12T10:43:54;1.35;;;0.73;;
29774;SDS011;16676;51.202;6.774;2023-08-12T10:48:09;1.25;;;0.73;;
29774;SDS011;16676;51.202;6.774;2023-08-12T10:52:26;2.10;;;0.80;;
29774;SDS011;16676;51.202;6.774;2023-08-12T10:56:29;0.93;;;0.68;;
29774;SDS011;16676;51.202;6.774;2023-08-12T11:00:31;0.65;;;0.60;;
29774;SDS011;16676;51.202;6.774;2023-08-12T11:04:36;2.58;;;0.68;;
29774;SDS011;16676;51.202;6.774;2023-08-12T11:08:48;1.15;;;0.85;;
29774;SDS011;16676;51.202;6.774;2023-08-12T11:12:54;1.60;;;0.70;;
29774;SDS011;16676;51.202;6.774;2023-08-12T11:16:57;0.90;;;0.70;;
29774;SDS011;16676;51.202;6.774;2023-08-12T11:20:59;2.67;;;0.60;;
29774;SDS011;16676;51.202;6.774;2023-08-12T11:25:04;1.75;;;0.70;;
29774;SDS011;16676;51.202;6.774;2023-08-12T11:29:09;0.75;;;0.57;;
29774;SDS011;16676;51.202;6.774;2023-08-12T11:33:15;1.13;;;0.60;;
29774;SDS011;16676;51.202;6.774;2023-08-12T11:37:18;0.80;;;0.70;;
29774;SDS011;16676;51.202;6.774;2023-08-12T11:41:23;0.73;;;0.50;;
29774;SDS011;16676;51.202;6.774;2023-08-12T11:45:25;0.60;;;0.50;;
29774;SDS011;16676;51.202;6.774;2023-08-12T11:49:28;2.72;;;0.77;;
29774;SDS011;16676;51.202;6.774;2023-08-12T11:53:30;1.63;;;0.98;;
29774;SDS011;16676;51.202;6.774;2023-08-12T11:57:34;1.58;;;0.80;;
29774;SDS011;16676;51.202;6.774;2023-08-12T12:01:37;0.82;;;0.63;;
29774;SDS011;16676;51.202;6.774;2023-08-12T12:05:39;1.13;;;0.85;;
29774;SDS011;16676;51.202;6.774;2023-08-12T12:09:42;2.50;;;0.95;;
29774;SDS011;16676;51.202;6.774;2023-08-12T12:13:46;2.28;;;1.10;;
29774;SDS011;16676;51.202;6.774;2023-08-12T12:17:48;1.30;;;0.60;;
29774;SDS011;16676;51.202;6.774;2023-08-12T12:21:52;1.73;;;0.50;;
29774;SDS011;16676;51.202;6.774;2023-08-12T12:25:56;0.70;;;0.60;;
29774;SDS011;16676;51.202;6.774;2023-08-12T12:30:01;0.50;;;0.40;;
29774;SDS011;16676;51.202;6.774;2023-08-12T12:34:03;1.30;;;0.55;;
29774;SDS011;16676;51.202;6.774;2023-08-12T12:38:06;0.80;;;0.65;;
29774;SDS011;16676;51.202;6.774;2023-08-12T12:42:08;1.27;;;0.60;;
29774;SDS011;16676;51.202;6.774;2023-08-12T12:46:11;0.70;;;0.40;;
29774;SDS011;16676;51.202;6.774;2023-08-12T12:50:13;2.10;;;0.80;;
29774;SDS011;16676;51.202;6.774;2023-08-12T12:54:15;0.80;;;0.50;;
29774;SDS011;16676;51.202;6.774;2023-08-12T12:58:19;1.00;;;0.70;;
29774;SDS011;16676;51.202;6.774;2023-08-12T13:02:24;0.70;;;0.57;;
29774;SDS011;16676;51.202;6.774;2023-08-12T13:06:25;1.05;;;0.73;;
29774;SDS011;16676;51.202;6.774;2023-08-12T13:10:27;0.73;;;0.73;;
29774;SDS011;16676;51.202;6.774;2023-08-12T13:14:29;2.35;;;1.23;;
29774;SDS011;16676;51.202;6.774;2023-08-12T13:18:33;2.35;;;1.08;;
29774;SDS011;16676;51.202;6.774;2023-08-12T13:22:35;1.77;;;1.20;;
29774;SDS011;16676;51.202;6.774;2023-08-12T13:26:37;2.20;;;1.52;;
29774;SDS011;16676;51.202;6.774;2023-08-12T13:30:39;1.92;;;1.58;;
29774;SDS011;16676;51.202;6.774;2023-08-12T13:34:42;2.53;;;1.70;;
29774;SDS011;16676;51.202;6.774;2023-08-12T13:38:46;2.17;;;1.85;;
29774;SDS011;16676;51.202;6.774;2023-08-12T13:42:48;2.25;;;1.70;;
29774;SDS011;16676;51.202;6.774;2023-08-12T13:46:51;1.90;;;1.50;;
29774;SDS011;16676;51.202;6.774;2023-08-12T13:50:54;2.17;;;1.63;;
29774;SDS011;16676;51.202;6.774;2023-08-12T13:54:56;1.60;;;1.38;;
29774;SDS011;16676;51.202;6.774;2023-08-12T13:58:58;3.55;;;1.92;;
29774;SDS011;16676;51.202;6.774;2023-08-12T14:03:00;2.45;;;1.67;;
29774;SDS011;16676;51.202;6.774;2023-08-12T14:07:04;2.70;;;1.80;;
29774;SDS011;16676;51.202;6.774;2023-08-12T14:11:06;2.25;;;1.60;;
29774;SDS011;16676;51.202;6.774;2023-08-12T14:15:08;2.67;;;1.70;;
29774;SDS011;16676;51.202;6.774;2023-08-12T14:19:10;2.33;;;1.52;;
29774;SDS011;16676;51.202;6.774;2023-08-12T14:23:14;1.88;;;1.52;;
29774;SDS011;16676;51.202;6.774;2023-08-12T14:27:15;1.95;;;1.63;;
29774;SDS011;16676;51.202;6.774;2023-08-12T14:31:18;2.50;;;1.70;;
29774;SDS011;16676;51.202;6.774;2023-08-12T14:35:20;1.48;;;1.38;;
29774;SDS011;16676;51.202;6.774;2023-08-12T14:39:23;3.90;;;1.50;;
29774;SDS011;16676;51.202;6.774;2023-08-12T14:43:26;2.22;;;1.60;;
29774;SDS011;16676;51.202;6.774;2023-08-12T14:47:27;2.08;;;1.75;;
29774;SDS011;16676;51.202;6.774;2023-08-12T14:51:30;1.48;;;1.20;;
29774;SDS011;16676;51.202;6.774;2023-08-12T14:55:33;1.65;;;1.23;;
29774;SDS011;16676;51.202;6.774;2023-08-12T14:59:35;2.85;;;1.30;;
29774;SDS011;16676;51.202;6.774;2023-08-12T15:03:37;2.70;;;1.23;;
29774;SDS011;16676;51.202;6.774;2023-08-12T15:07:39;2.13;;;1.27;;
29774;SDS011;16676;51.202;6.774;2023-08-12T15:11:43;1.95;;;1.20;;
29774;SDS011;16676;51.202;6.774;2023-08-12T15:15:45;1.70;;;1.17;;
29774;SDS011;16676;51.202;6.774;2023-08-12T15:19:48;1.88;;;1.40;;
29774;SDS011;16676;51.202;6.774;2023-08-12T15:23:50;2.47;;;1.15;;
29774;SDS011;16676;51.202;6.774;2023-08-12T15:27:54;4.20;;;1.20;;
29774;SDS011;16676;51.202;6.774;2023-08-12T15:31:56;2.65;;;1.20;;
29774;SDS011;16676;51.202;6.774;2023-08-12T15:35:57;2.75;;;1.27;;
29774;SDS011;16676;51.202;6.774;2023-08-12T15:39:59;2.22;;;1.10;;
29774;SDS011;16676;51.202;6.774;2023-08-12T15:44:03;3.53;;;1.35;;
29774;SDS011;16676;51.202;6.774;2023-08-12T15:48:06;2.60;;;1.27;;
29774;SDS011;16676;51.202;6.774;2023-08-12T15:52:08;2.20;;;1.48;;
29774;SDS011;16676;51.202;6.774;2023-08-12T15:56:10;2.25;;;1.38;;
29774;SDS011;16676;51.202;6.774;2023-08-12T16:00:13;2.20;;;1.33;;
29774;SDS011;16676;51.202;6.774;2023-08-12T16:04:15;4.18;;;1.80;;
29774;SDS011;16676;51.202;6.774;2023-08-12T16:08:17;3.65;;;1.70;;
29774;SDS011;16676;51.202;6.774;2023-08-12T16:12:19;4.93;;;2.00;;
29774;SDS011;16676;51.202;6.774;2023-08-12T16:16:23;7.22;;;1.90;;
29774;SDS011;16676;51.202;6.774;2023-08-12T16:20:25;2.83;;;1.77;;
29774;SDS011;16676;51.202;6.774;2023-08-12T16:24:26;7.28;;;2.30;;
29774;SDS011;16676;51.202;6.774;2023-08-12T16:28:28;5.10;;;2.35;;
29774;SDS011;16676;51.202;6.774;2023-08-12T16:32:32;4.45;;;2.30;;
29774;SDS011;16676;51.202;6.774;2023-08-12T16:36:34;3.78;;;2.15;;
29774;SDS011;16676;51.202;6.774;2023-08-12T16:40:36;3.58;;;1.70;;
29774;SDS011;16676;51.202;6.774;2023-08-12T16:44:38;4.82;;;1.88;;
29774;SDS011;16676;51.202;6.774;2023-08-12T16:48:41;6.03;;;2.38;;
29774;SDS011;16676;51.202;6.774;2023-08-12T16:52:43;4.82;;;2.03;;
29774;SDS011;16676;51.202;6.774;2023-08-12T16:56:45;3.28;;;1.65;;
29774;SDS011;16676;51.202;6.774;2023-08-12T17:00:47;6.35;;;1.75;;
29774;SDS011;16676;51.202;6.774;2023-08-12T17:04:50;3.97;;;1.70;;
29774;SDS011;16676;51.202;6.774;2023-08-12T17:08:52;5.60;;;1.73;;
29774;SDS011;16676;51.202;6.774;2023-08-12T17:12:54;6.45;;;2.20;;
29774;SDS011;16676;51.202;6.774;2023-08-12T17:16:56;5.97;;;2.33;;
29774;SDS011;16676;51.202;6.774;2023-08-12T17:21:00;4.10;;;1.90;;
29774;SDS011;16676;51.202;6.774;2023-08-12T17:25:02;6.78;;;1.92;;
29774;SDS011;16676;51.202;6.774;2023-08-12T17:29:05;5.25;;;2.10;;
29774;SDS011;16676;51.202;6.774;2023-08-12T17:33:07;4.05;;;1.85;;
29774;SDS011;16676;51.202;6.774;2023-08-12T17:37:10;5.07;;;1.70;;
29774;SDS011;16676;51.202;6.774;2023-08-12T17:41:13;5.40;;;1.70;;
29774;SDS011;16676;51.202;6.774;2023-08-12T17:45:15;3.00;;;1.70;;
29774;SDS011;16676;51.202;6.774;2023-08-12T17:49:17;2.90;;;1.60;;
29774;SDS011;16676;51.202;6.774;2023-08-12T17:53:21;4.85;;;1.65;;
29774;SDS011;16676;51.202;6.774;2023-08-12T17:57:23;3.13;;;1.60;;
29774;SDS011;16676;51.202;6.774;2023-08-12T18:01:25;4.75;;;1.50;;
29774;SDS011;16676;51.202;6.774;2023-08-12T18:05:27;3.22;;;1.70;;
29774;SDS011;16676;51.202;6.774;2023-08-12T18:09:30;3.53;;;1.83;;
29774;SDS011;16676;51.202;6.774;2023-08-12T18:13:33;3.40;;;1.60;;
29774;SDS011;16676;51.202;6.774;2023-08-12T18:17:35;3.75;;;1.73;;
29774;SDS011;16676;51.202;6.774;2023-08-12T18:21:37;4.93;;;1.95;;
29774;SDS011;16676;51.202;6.774;2023-08-12T18:25:40;3.38;;;1.50;;
29774;SDS011;16676;51.202;6.774;2023-08-12T18:29:42;5.03;;;1.75;;
29774;SDS011;16676;51.202;6.774;2023-08-12T18:33:44;4.35;;;1.70;;
29774;SDS011;16676;51.202;6.774;2023-08-12T18:37:46;2.80;;;1.35;;
29774;SDS011;16676;51.202;6.774;2023-08-12T18:41:50;3.78;;;1.80;;
29774;SDS011;16676;51.202;6.774;2023-08-12T18:45:52;4.15;;;1.70;;
29774;SDS011;16676;51.202;6.774;2023-08-12T18:49:54;6.40;;;1.95;;
29774;SDS011;16676;51.202;6.774;2023-08-12T18:53:58;4.53;;;1.88;;
29774;SDS011;16676;51.202;6.774;2023-08-12T18:58:01;4.88;;;2.00;;
29774;SDS011;16676;51.202;6.774;2023-08-12T19:02:03;6.07;;;1.90;;
29774;SDS011;16676;51.202;6.774;2023-08-12T19:06:05;5.07;;;1.85;;
29774;SDS011;16676;51.202;6.774;2023-08-12T19:10:08;6.63;;;2.28;;
29774;SDS011;16676;51.202;6.774;2023-08-12T19:14:12;3.65;;;1.92;;
29774;SDS011;16676;51.202;6.774;2023-08-12T19:18:15;4.53;;;2.10;;
29774;SDS011;16676;51.202;6.774;2023-08-12T19:22:17;4.65;;;2.30;;
29774;SDS011;16676;51.202;6.774;2023-08-12T19:26:20;5.18;;;2.25;;
29774;SDS011;16676;51.202;6.774;2023-08-12T19:30:23;6.43;;;2.20;;
29774;SDS011;16676;51.202;6.774;2023-08-12T19:34:25;5.38;;;2.03;;
29774;SDS011;16676;51.202;6.774;2023-08-12T19:38:27;5.30;;;2.20;;
29774;SDS011;16676;51.202;6.774;2023-08-12T19:42:29;3.53;;;1.80;;
29774;SDS011;16676;51.202;6.774;2023-08-12T19:46:33;4.38;;;2.35;;
29774;SDS011;16676;51.202;6.774;2023-08-12T19:50:35;4.65;;;1.98;;
29774;SDS011;16676;51.202;6.774;2023-08-12T19:54:37;5.68;;;2.10;;
29774;SDS011;16676;51.202;6.774;2023-08-12T19:58:39;5.78;;;2.10;;
29774;SDS011;16676;51.202;6.774;2023-08-12T20:02:42;4.40;;;2.10;;
29774;SDS011;16676;51.202;6.774;2023-08-12T20:06:44;4.88;;;2.05;;
29774;SDS011;16676;51.202;6.774;2023-08-12T20:10:46;4.78;;;1.77;;
29774;SDS011;16676;51.202;6.774;2023-08-12T20:14:48;3.75;;;1.98;;
29774;SDS011;16676;51.202;6.774;2023-08-12T20:18:51;4.53;;;2.15;;
29774;SDS011;16676;51.202;6.774;2023-08-12T20:22:54;4.85;;;1.92;;
29774;SDS011;16676;51.202;6.774;2023-08-12T20:26:56;3.70;;;1.90;;
29774;SDS011;16676;51.202;6.774;2023-08-12T20:30:58;6.53;;;2.13;;
29774;SDS011;16676;51.202;6.774;2023-08-12T20:35:01;5.45;;;2.22;;
29774;SDS011;16676;51.202;6.774;2023-08-12T20:39:04;5.60;;;2.30;;
29774;SDS011;16676;51.202;6.774;2023-08-12T20:43:08;5.05;;;2.30;;
29774;SDS011;16676;51.202;6.774;2023-08-12T20:47:10;4.30;;;2.40;;
29774;SDS011;16676;51.202;6.774;2023-08-12T20:51:14;4.32;;;2.30;;
29774;SDS011;16676;51.202;6.774;2023-08-12T20:55:16;4.25;;;2.17;;
29774;SDS011;16676;51.202;6.774;2023-08-12T20:59:18;6.20;;;2.33;;
29774;SDS011;16676;51.202;6.774;2023-08-12T21:03:20;9.95;;;2.33;;
29774;SDS011;16676;51.202;6.774;2023-08-12T21:07:24;7.57;;;2.67;;
29774;SDS011;16676;51.202;6.774;2023-08-12T21:11:26;6.57;;;2.75;;
29774;SDS011;16676;51.202;6.774;2023-08-12T21:15:28;6.25;;;2.50;;
29774;SDS011;16676;51.202;6.774;2023-08-12T21:19:30;7.90;;;2.67;;
29774;SDS011;16676;51.202;6.774;2023-08-12T21:23:33;3.42;;;2.13;;
29774;SDS011;16676;51.202;6.774;2023-08-12T21:27:35;4.85;;;2.33;;
29774;SDS011;16676;51.202;6.774;2023-08-12T21:31:37;9.70;;;2.72;;
29774;SDS011;16676;51.202;6.774;2023-08-12T21:35:39;7.97;;;2.45;;
29774;SDS011;16676;51.202;6.774;2023-08-12T21:39:43;19.23;;;12.07;;
29774;SDS011;16676;51.202;6.774;2023-08-12T21:43:45;13.23;;;8.32;;
29774;SDS011;16676;51.202;6.774;2023-08-12T21:47:47;10.10;;;6.68;;
29774;SDS011;16676;51.202;6.774;2023-08-12T21:51:49;10.73;;;5.63;;
29774;SDS011;16676;51.202;6.774;2023-08-12T21:55:53;10.98;;;5.38;;
29774;SDS011;16676;51.202;6.774;2023-08-12T21:59:55;11.05;;;4.40;;
29774;SDS011;16676;51.202;6.774;2023-08-12T22:03:57;9.93;;;4.70;;
29774;SDS011;16676;51.202;6.774;2023-08-12T22:07:59;8.00;;;3.85;;
29774;SDS011;16676;51.202;6.774;2023-08-12T22:12:03;6.45;;;3.65;;
29774;SDS011;16676;51.202;6.774;2023-08-12T22:16:05;7.25;;;3.75;;
29774;SDS011;16676;51.202;6.774;2023-08-12T22:20:07;5.55;;;2.95;;
29774;SDS011;16676;51.202;6.774;2023-08-12T22:24:10;6.30;;;3.33;;
29774;SDS011;16676;51.202;6.774;2023-08-12T22:28:14;4.75;;;3.30;;
29774;SDS011;16676;51.202;6.774;2023-08-12T22:32:16;6.55;;;3.22;;
29774;SDS011;16676;51.202;6.774;2023-08-12T22:36:18;5.55;;;3.40;;
29774;SDS011;16676;51.202;6.774;2023-08-12T22:40:20;7.22;;;3.50;;
29774;SDS011;16676;51.202;6.774;2023-08-12T22:44:23;4.38;;;3.28;;
29774;SDS011;16676;51.202;6.774;2023-08-12T22:48:25;7.53;;;3.65;;
29774;SDS011;16676;51.202;6.774;2023-08-12T22:52:27;9.00;;;3.47;;
29774;SDS011;16676;51.202;6.774;2023-08-12T22:56:29;4.88;;;3.08;;
29774;SDS011;16676;51.202;6.774;2023-08-12T23:00:33;6.25;;;3.50;;
29774;SDS011;16676;51.202;6.774;2023-08-12T23:04:35;5.00;;;3.00;;
29774;SDS011;16676;51.202;6.774;2023-08-12T23:08:37;4.03;;;2.67;;
29774;SDS011;16676;51.202;6.774;2023-08-12T23:12:39;5.70;;;3.42;;
29774;SDS011;16676;51.202;6.774;2023-08-12T23:16:42;6.07;;;3.00;;
29774;SDS011;16676;51.202;6.774;2023-08-12T23:20:44;5.65;;;2.90;;
29774;SDS011;16676;51.202;6.774;2023-08-12T23:24:46;3.95;;;3.15;;
29774;SDS011;16676;51.202;6.774;2023-08-12T23:28:48;5.80;;;3.30;;
29774;SDS011;16676;51.202;6.774;2023-08-12T23:32:52;9.90;;;2.90;;
29774;SDS011;16676;51.202;6.774;2023-08-12T23:36:54;9.48;;;3.03;;
29774;SDS011;16676;51.202;6.774;2023-08-12T23:40:56;4.90;;;2.40;;
29774;SDS011;16676;51.202;6.774;2023-08-12T23:44:58;8.82;;;3.00;;
29774;SDS011;16676;51.202;6.774;2023-08-12T23:49:01;7.18;;;2.95;;
29774;SDS011;16676;51.202;6.774;2023-08-12T23:53:04;6.47;;;3.05;;
29774;SDS011;16676;51.202;6.774;2023-08-12T23:57:07;4.82;;;2.55;;
